sensor_id;sensor_type;location;lat;lon;timestamp;temperature;humidity
51035;DHT22;37062;52.546;13.230;2022-12-18T00:00:06;-1.20;99.90
51035;DHT22;37062;52.546;13.230;2022-12-18T00:02:39;-1.30;99.90
51035;DHT22;37062;52.546;13.230;2022-12-18T00:05:09;-1.40;99.90
51035;DHT22;37062;52.546;13.230;2022-12-18T00:07:37;-1.50;99.90
51035;DHT22;37062;52.546;13.230;2022-12-18T00:10:06;-1.70;99.90
51035;DHT22;37062;52.546;13.230;2022-12-18T00:12:35;-1.70;99.90
51035;DHT22;37062;52.546;13.230;2022-12-18T00:15:04;-1.70;99.90
51035;DHT22;37062;52.546;13.230;2022-12-18T00:17:33;-1.70;99.90
51035;DHT22;37062;52.546;13.230;2022-12-18T00:20:01;-1.70;99.90
51035;DHT22;37062;52.546;13.230;2022-12-18T00:22:31;-1.60;99.90
51035;DHT22;37062;52.546;13.230;2022-12-18T00:24:59;-1.60;99.90
51035;DHT22;37062;52.546;13.230;2022-12-18T00:27:27;-1.60;99.90
51035;DHT22;37062;52.546;13.230;2022-12-18T00:29:55;-1.60;99.90
51035;DHT22;37062;52.546;13.230;2022-12-18T00:32:24;-1.50;99.90
51035;DHT22;37062;52.546;13.230;2022-12-18T00:34:52;-1.50;99.90
51035;DHT22;37062;52.546;13.230;2022-12-18T00:37:20;-1.40;99.90
51035;DHT22;37062;52.546;13.230;2022-12-18T00:39:51;-1.40;99.90
51035;DHT22;37062;52.546;13.230;2022-12-18T00:42:19;-1.40;99.90
51035;DHT22;37062;52.546;13.230;2022-12-18T00:45:05;-1.40;99.90
51035;DHT22;37062;52.546;13.230;2022-12-18T00:47:39;-1.50;99.90
51035;DHT22;37062;52.546;13.230;2022-12-18T00:50:08;-1.60;99.90
51035;DHT22;37062;52.546;13.230;2022-12-18T00:52:37;-1.70;99.90
51035;DHT22;37062;52.546;13.230;2022-12-18T00:55:09;-1.60;99.90
51035;DHT22;37062;52.546;13.230;2022-12-18T00:57:38;-1.60;99.90
51035;DHT22;37062;52.546;13.230;2022-12-18T01:00:09;-1.60;99.90
51035;DHT22;37062;52.546;13.230;2022-12-18T01:02:39;-1.60;99.90
51035;DHT22;37062;52.546;13.230;2022-12-18T01:05:09;-1.60;99.90
51035;DHT22;37062;52.546;13.230;2022-12-18T01:07:38;-1.60;99.90
51035;DHT22;37062;52.546;13.230;2022-12-18T01:10:07;-1.70;99.90
51035;DHT22;37062;52.546;13.230;2022-12-18T01:12:36;-1.70;99.90
51035;DHT22;37062;52.546;13.230;2022-12-18T01:15:06;-1.80;99.90
51035;DHT22;37062;52.546;13.230;2022-12-18T01:17:36;-1.80;99.90
51035;DHT22;37062;52.546;13.230;2022-12-18T01:20:05;-1.80;99.90
51035;DHT22;37062;52.546;13.230;2022-12-18T01:22:33;-1.80;99.90
51035;DHT22;37062;52.546;13.230;2022-12-18T01:25:03;-1.80;99.90
51035;DHT22;37062;52.546;13.230;2022-12-18T01:27:33;-1.70;99.90
51035;DHT22;37062;52.546;13.230;2022-12-18T01:30:05;-1.70;99.90
51035;DHT22;37062;52.546;13.230;2022-12-18T01:32:34;-1.60;99.90
51035;DHT22;37062;52.546;13.230;2022-12-18T01:35:02;-1.50;99.90
51035;DHT22;37062;52.546;13.230;2022-12-18T01:37:31;-1.50;99.90
51035;DHT22;37062;52.546;13.230;2022-12-18T01:39:59;-1.50;99.90
51035;DHT22;37062;52.546;13.230;2022-12-18T01:42:27;-1.40;99.90
51035;DHT22;37062;52.546;13.230;2022-12-18T01:45:06;-1.50;99.90
51035;DHT22;37062;52.546;13.230;2022-12-18T01:47:39;-1.50;99.90
51035;DHT22;37062;52.546;13.230;2022-12-18T01:50:11;-1.60;99.90
51035;DHT22;37062;52.546;13.230;2022-12-18T01:52:41;-1.60;99.90
51035;DHT22;37062;52.546;13.230;2022-12-18T01:55:11;-1.60;99.90
51035;DHT22;37062;52.546;13.230;2022-12-18T01:57:40;-1.60;99.90
51035;DHT22;37062;52.546;13.230;2022-12-18T02:00:13;-1.60;99.90
51035;DHT22;37062;52.546;13.230;2022-12-18T02:02:43;-1.50;99.90
51035;DHT22;37062;52.546;13.230;2022-12-18T02:05:16;-1.50;99.90
51035;DHT22;37062;52.546;13.230;2022-12-18T02:07:56;-1.50;99.90
51035;DHT22;37062;52.546;13.230;2022-12-18T02:10:35;-1.40;99.90
51035;DHT22;37062;52.546;13.230;2022-12-18T02:13:12;-1.40;99.90
51035;DHT22;37062;52.546;13.230;2022-12-18T02:15:49;-1.40;99.90
51035;DHT22;37062;52.546;13.230;2022-12-18T02:18:22;-1.40;99.90
51035;DHT22;37062;52.546;13.230;2022-12-18T02:20:57;-1.40;99.90
51035;DHT22;37062;52.546;13.230;2022-12-18T02:23:42;-1.50;99.90
51035;DHT22;37062;52.546;13.230;2022-12-18T02:26:19;-1.50;99.90
51035;DHT22;37062;52.546;13.230;2022-12-18T02:28:53;-1.50;99.90
51035;DHT22;37062;52.546;13.230;2022-12-18T02:31:27;-1.60;99.90
51035;DHT22;37062;52.546;13.230;2022-12-18T02:34:00;-1.70;99.90
51035;DHT22;37062;52.546;13.230;2022-12-18T02:36:36;-1.80;99.90
51035;DHT22;37062;52.546;13.230;2022-12-18T02:39:09;-1.80;99.90
51035;DHT22;37062;52.546;13.230;2022-12-18T02:41:46;-1.80;99.90
51035;DHT22;37062;52.546;13.230;2022-12-18T02:44:15;-1.80;99.90
51035;DHT22;37062;52.546;13.230;2022-12-18T02:46:46;-2.00;99.90
51035;DHT22;37062;52.546;13.230;2022-12-18T02:49:26;-2.00;99.90
51035;DHT22;37062;52.546;13.230;2022-12-18T02:52:07;-2.10;99.90
51035;DHT22;37062;52.546;13.230;2022-12-18T02:54:50;-2.20;99.90
51035;DHT22;37062;52.546;13.230;2022-12-18T02:57:34;-2.30;99.90
51035;DHT22;37062;52.546;13.230;2022-12-18T03:00:06;-2.30;99.90
51035;DHT22;37062;52.546;13.230;2022-12-18T03:02:39;-2.20;99.90
51035;DHT22;37062;52.546;13.230;2022-12-18T03:05:14;-2.20;99.90
51035;DHT22;37062;52.546;13.230;2022-12-18T03:07:48;-2.20;99.90
51035;DHT22;37062;52.546;13.230;2022-12-18T03:10:25;-2.10;99.90
51035;DHT22;37062;52.546;13.230;2022-12-18T03:12:59;-2.00;99.90
51035;DHT22;37062;52.546;13.230;2022-12-18T03:15:30;-2.00;99.90
51035;DHT22;37062;52.546;13.230;2022-12-18T03:18:08;-2.00;99.90
51035;DHT22;37062;52.546;13.230;2022-12-18T03:20:40;-2.00;99.90
51035;DHT22;37062;52.546;13.230;2022-12-18T03:23:15;-2.10;99.90
51035;DHT22;37062;52.546;13.230;2022-12-18T03:25:49;-2.10;99.90
51035;DHT22;37062;52.546;13.230;2022-12-18T03:28:22;-2.10;99.90
51035;DHT22;37062;52.546;13.230;2022-12-18T03:31:00;-2.10;99.90
51035;DHT22;37062;52.546;13.230;2022-12-18T03:33:35;-2.20;99.90
51035;DHT22;37062;52.546;13.230;2022-12-18T03:36:06;-2.30;99.90
51035;DHT22;37062;52.546;13.230;2022-12-18T03:38:35;-2.40;99.90
51035;DHT22;37062;52.546;13.230;2022-12-18T03:41:10;-2.40;99.90
51035;DHT22;37062;52.546;13.230;2022-12-18T03:44:11;-2.40;99.90
51035;DHT22;37062;52.546;13.230;2022-12-18T03:46:51;-2.70;99.90
51035;DHT22;37062;52.546;13.230;2022-12-18T03:49:29;-2.80;99.90
51035;DHT22;37062;52.546;13.230;2022-12-18T03:52:06;-2.70;99.90
51035;DHT22;37062;52.546;13.230;2022-12-18T03:54:39;-2.60;99.90
51035;DHT22;37062;52.546;13.230;2022-12-18T03:57:15;-2.60;99.90
51035;DHT22;37062;52.546;13.230;2022-12-18T03:59:47;-2.60;99.90
51035;DHT22;37062;52.546;13.230;2022-12-18T04:02:20;-2.60;99.90
51035;DHT22;37062;52.546;13.230;2022-12-18T04:04:51;-2.50;99.90
51035;DHT22;37062;52.546;13.230;2022-12-18T04:07:21;-2.50;99.90
51035;DHT22;37062;52.546;13.230;2022-12-18T04:09:52;-2.40;99.90
51035;DHT22;37062;52.546;13.230;2022-12-18T04:12:24;-2.30;99.90
51035;DHT22;37062;52.546;13.230;2022-12-18T04:14:54;-2.20;99.90
51035;DHT22;37062;52.546;13.230;2022-12-18T04:17:23;-2.20;99.90
51035;DHT22;37062;52.546;13.230;2022-12-18T04:19:51;-2.10;99.90
51035;DHT22;37062;52.546;13.230;2022-12-18T04:22:19;-2.10;99.90
51035;DHT22;37062;52.546;13.230;2022-12-18T04:24:53;-2.20;99.90
51035;DHT22;37062;52.546;13.230;2022-12-18T04:27:29;-2.20;99.90
51035;DHT22;37062;52.546;13.230;2022-12-18T04:30:00;-2.20;99.90
51035;DHT22;37062;52.546;13.230;2022-12-18T04:32:29;-2.20;99.90
51035;DHT22;37062;52.546;13.230;2022-12-18T04:34:59;-2.20;99.90
51035;DHT22;37062;52.546;13.230;2022-12-18T04:37:27;-2.20;99.90
51035;DHT22;37062;52.546;13.230;2022-12-18T04:39:55;-2.30;99.90
51035;DHT22;37062;52.546;13.230;2022-12-18T04:42:32;-2.40;99.90
51035;DHT22;37062;52.546;13.230;2022-12-18T04:45:01;-2.60;99.90
51035;DHT22;37062;52.546;13.230;2022-12-18T04:47:31;-2.70;99.90
51035;DHT22;37062;52.546;13.230;2022-12-18T04:49:59;-2.80;99.90
51035;DHT22;37062;52.546;13.230;2022-12-18T04:52:27;-2.80;99.90
51035;DHT22;37062;52.546;13.230;2022-12-18T04:54:58;-2.70;99.90
51035;DHT22;37062;52.546;13.230;2022-12-18T04:57:26;-2.60;99.90
51035;DHT22;37062;52.546;13.230;2022-12-18T04:59:54;-2.80;99.90
51035;DHT22;37062;52.546;13.230;2022-12-18T05:02:23;-2.90;99.90
51035;DHT22;37062;52.546;13.230;2022-12-18T05:04:52;-2.90;99.90
51035;DHT22;37062;52.546;13.230;2022-12-18T05:07:20;-2.80;99.90
51035;DHT22;37062;52.546;13.230;2022-12-18T05:09:48;-2.90;99.90
51035;DHT22;37062;52.546;13.230;2022-12-18T05:12:16;-3.00;99.90
51035;DHT22;37062;52.546;13.230;2022-12-18T05:14:44;-2.90;99.90
51035;DHT22;37062;52.546;13.230;2022-12-18T05:17:12;-2.90;99.90
51035;DHT22;37062;52.546;13.230;2022-12-18T05:19:42;-2.90;99.90
51035;DHT22;37062;52.546;13.230;2022-12-18T05:22:10;-2.80;99.90
51035;DHT22;37062;52.546;13.230;2022-12-18T05:24:38;-2.70;99.90
51035;DHT22;37062;52.546;13.230;2022-12-18T05:27:06;-2.60;99.90
51035;DHT22;37062;52.546;13.230;2022-12-18T05:29:34;-2.50;99.90
51035;DHT22;37062;52.546;13.230;2022-12-18T05:32:03;-2.30;99.90
51035;DHT22;37062;52.546;13.230;2022-12-18T05:34:31;-2.20;99.90
51035;DHT22;37062;52.546;13.230;2022-12-18T05:37:01;-2.20;99.90
51035;DHT22;37062;52.546;13.230;2022-12-18T05:39:29;-2.30;99.90
51035;DHT22;37062;52.546;13.230;2022-12-18T05:41:57;-2.40;99.90
51035;DHT22;37062;52.546;13.230;2022-12-18T05:44:25;-2.50;99.90
51035;DHT22;37062;52.546;13.230;2022-12-18T05:46:54;-2.60;99.90
51035;DHT22;37062;52.546;13.230;2022-12-18T05:49:22;-2.60;99.90
51035;DHT22;37062;52.546;13.230;2022-12-18T05:51:50;-2.60;99.90
51035;DHT22;37062;52.546;13.230;2022-12-18T05:54:20;-2.60;99.90
51035;DHT22;37062;52.546;13.230;2022-12-18T05:56:48;-2.70;99.90
51035;DHT22;37062;52.546;13.230;2022-12-18T05:59:16;-2.70;99.90
51035;DHT22;37062;52.546;13.230;2022-12-18T06:01:44;-2.70;99.90
51035;DHT22;37062;52.546;13.230;2022-12-18T06:04:13;-2.70;99.90
51035;DHT22;37062;52.546;13.230;2022-12-18T06:06:41;-2.70;99.90
51035;DHT22;37062;52.546;13.230;2022-12-18T06:09:09;-2.60;99.90
51035;DHT22;37062;52.546;13.230;2022-12-18T06:11:40;-2.60;99.90
51035;DHT22;37062;52.546;13.230;2022-12-18T06:14:09;-2.60;99.90
51035;DHT22;37062;52.546;13.230;2022-12-18T06:16:38;-2.60;99.90
51035;DHT22;37062;52.546;13.230;2022-12-18T06:19:06;-2.60;99.90
51035;DHT22;37062;52.546;13.230;2022-12-18T06:21:34;-2.60;99.90
51035;DHT22;37062;52.546;13.230;2022-12-18T06:24:02;-2.50;99.90
51035;DHT22;37062;52.546;13.230;2022-12-18T06:26:31;-2.60;99.90
51035;DHT22;37062;52.546;13.230;2022-12-18T06:29:00;-2.50;99.90
51035;DHT22;37062;52.546;13.230;2022-12-18T06:31:28;-2.40;99.90
51035;DHT22;37062;52.546;13.230;2022-12-18T06:33:57;-2.40;99.90
51035;DHT22;37062;52.546;13.230;2022-12-18T06:36:25;-2.40;99.90
51035;DHT22;37062;52.546;13.230;2022-12-18T06:38:59;-2.40;99.90
51035;DHT22;37062;52.546;13.230;2022-12-18T06:41:27;-2.50;99.90
51035;DHT22;37062;52.546;13.230;2022-12-18T06:43:55;-2.50;99.90
51035;DHT22;37062;52.546;13.230;2022-12-18T06:46:30;-2.50;99.90
51035;DHT22;37062;52.546;13.230;2022-12-18T06:48:58;-2.50;99.90
51035;DHT22;37062;52.546;13.230;2022-12-18T06:51:27;-2.50;99.90
51035;DHT22;37062;52.546;13.230;2022-12-18T06:53:55;-2.40;99.90
51035;DHT22;37062;52.546;13.230;2022-12-18T06:56:23;-2.50;99.90
51035;DHT22;37062;52.546;13.230;2022-12-18T06:58:51;-2.70;99.90
51035;DHT22;37062;52.546;13.230;2022-12-18T07:01:19;-2.60;99.90
51035;DHT22;37062;52.546;13.230;2022-12-18T07:03:52;-2.60;99.90
51035;DHT22;37062;52.546;13.230;2022-12-18T07:06:22;-2.60;99.90
51035;DHT22;37062;52.546;13.230;2022-12-18T07:08:51;-2.60;99.90
51035;DHT22;37062;52.546;13.230;2022-12-18T07:11:20;-2.60;99.90
51035;DHT22;37062;52.546;13.230;2022-12-18T07:13:48;-2.60;99.90
51035;DHT22;37062;52.546;13.230;2022-12-18T07:16:19;-2.60;99.90
51035;DHT22;37062;52.546;13.230;2022-12-18T07:18:54;-2.60;99.90
51035;DHT22;37062;52.546;13.230;2022-12-18T07:21:24;-2.60;99.90
51035;DHT22;37062;52.546;13.230;2022-12-18T07:23:52;-2.80;99.90
51035;DHT22;37062;52.546;13.230;2022-12-18T07:26:21;-3.00;99.90
51035;DHT22;37062;52.546;13.230;2022-12-18T07:28:50;-3.10;99.90
51035;DHT22;37062;52.546;13.230;2022-12-18T07:31:19;-3.00;99.90
51035;DHT22;37062;52.546;13.230;2022-12-18T07:33:49;-2.90;99.90
51035;DHT22;37062;52.546;13.230;2022-12-18T07:36:19;-2.80;99.90
51035;DHT22;37062;52.546;13.230;2022-12-18T07:38:50;-2.70;99.90
51035;DHT22;37062;52.546;13.230;2022-12-18T07:41:20;-2.70;99.90
51035;DHT22;37062;52.546;13.230;2022-12-18T07:43:48;-2.70;99.90
51035;DHT22;37062;52.546;13.230;2022-12-18T07:46:16;-2.80;99.90
51035;DHT22;37062;52.546;13.230;2022-12-18T07:48:45;-2.90;99.90
51035;DHT22;37062;52.546;13.230;2022-12-18T07:51:16;-3.00;99.90
51035;DHT22;37062;52.546;13.230;2022-12-18T07:53:46;-2.90;99.90
51035;DHT22;37062;52.546;13.230;2022-12-18T07:56:19;-2.90;99.90
51035;DHT22;37062;52.546;13.230;2022-12-18T07:58:55;-2.90;99.90
51035;DHT22;37062;52.546;13.230;2022-12-18T08:01:23;-2.90;99.90
51035;DHT22;37062;52.546;13.230;2022-12-18T08:03:52;-2.80;99.90
51035;DHT22;37062;52.546;13.230;2022-12-18T08:06:20;-2.90;99.90
51035;DHT22;37062;52.546;13.230;2022-12-18T08:08:52;-3.00;99.90
51035;DHT22;37062;52.546;13.230;2022-12-18T08:11:21;-3.00;99.90
51035;DHT22;37062;52.546;13.230;2022-12-18T08:13:49;-3.10;99.90
51035;DHT22;37062;52.546;13.230;2022-12-18T08:16:18;-3.00;99.90
51035;DHT22;37062;52.546;13.230;2022-12-18T08:18:47;-3.00;99.90
51035;DHT22;37062;52.546;13.230;2022-12-18T08:21:18;-3.00;99.90
51035;DHT22;37062;52.546;13.230;2022-12-18T08:23:48;-3.00;99.90
51035;DHT22;37062;52.546;13.230;2022-12-18T08:26:19;-3.10;99.90
51035;DHT22;37062;52.546;13.230;2022-12-18T08:28:48;-3.10;99.90
51035;DHT22;37062;52.546;13.230;2022-12-18T08:31:17;-3.10;99.90
51035;DHT22;37062;52.546;13.230;2022-12-18T08:33:48;-3.00;99.90
51035;DHT22;37062;52.546;13.230;2022-12-18T08:36:17;-2.90;99.90
51035;DHT22;37062;52.546;13.230;2022-12-18T08:38:46;-2.80;99.90
51035;DHT22;37062;52.546;13.230;2022-12-18T08:41:15;-2.70;99.90
51035;DHT22;37062;52.546;13.230;2022-12-18T08:43:45;-2.50;99.90
51035;DHT22;37062;52.546;13.230;2022-12-18T08:46:34;-2.40;99.90
51035;DHT22;37062;52.546;13.230;2022-12-18T08:49:03;-2.30;99.90
51035;DHT22;37062;52.546;13.230;2022-12-18T08:51:32;-2.20;99.90
51035;DHT22;37062;52.546;13.230;2022-12-18T08:54:01;-2.20;99.90
51035;DHT22;37062;52.546;13.230;2022-12-18T08:56:32;-2.10;99.90
51035;DHT22;37062;52.546;13.230;2022-12-18T08:59:02;-2.10;99.90
51035;DHT22;37062;52.546;13.230;2022-12-18T09:01:31;-2.20;99.90
51035;DHT22;37062;52.546;13.230;2022-12-18T09:04:00;-2.20;99.90
51035;DHT22;37062;52.546;13.230;2022-12-18T09:06:28;-2.20;99.90
51035;DHT22;37062;52.546;13.230;2022-12-18T09:08:57;-2.20;99.90
51035;DHT22;37062;52.546;13.230;2022-12-18T09:11:27;-2.20;99.90
51035;DHT22;37062;52.546;13.230;2022-12-18T09:13:57;-2.20;99.90
51035;DHT22;37062;52.546;13.230;2022-12-18T09:16:28;-2.20;99.90
51035;DHT22;37062;52.546;13.230;2022-12-18T09:18:59;-2.20;99.90
51035;DHT22;37062;52.546;13.230;2022-12-18T09:21:30;-2.30;99.90
51035;DHT22;37062;52.546;13.230;2022-12-18T09:24:04;-2.40;99.90
51035;DHT22;37062;52.546;13.230;2022-12-18T09:26:34;-2.40;99.90
51035;DHT22;37062;52.546;13.230;2022-12-18T09:29:03;-2.30;99.90
51035;DHT22;37062;52.546;13.230;2022-12-18T09:31:33;-2.40;99.90
51035;DHT22;37062;52.546;13.230;2022-12-18T09:34:01;-2.50;99.90
51035;DHT22;37062;52.546;13.230;2022-12-18T09:36:32;-2.50;99.90
51035;DHT22;37062;52.546;13.230;2022-12-18T09:39:01;-2.40;99.90
51035;DHT22;37062;52.546;13.230;2022-12-18T09:41:44;-2.30;99.90
51035;DHT22;37062;52.546;13.230;2022-12-18T09:44:20;-2.10;99.90
51035;DHT22;37062;52.546;13.230;2022-12-18T09:46:57;-1.90;99.90
51035;DHT22;37062;52.546;13.230;2022-12-18T09:49:30;-1.80;99.90
51035;DHT22;37062;52.546;13.230;2022-12-18T09:52:02;-1.80;99.90
51035;DHT22;37062;52.546;13.230;2022-12-18T09:54:35;-1.80;99.90
51035;DHT22;37062;52.546;13.230;2022-12-18T09:57:04;-1.80;99.90
51035;DHT22;37062;52.546;13.230;2022-12-18T09:59:36;-1.90;99.90
51035;DHT22;37062;52.546;13.230;2022-12-18T10:02:16;-2.10;99.90
51035;DHT22;37062;52.546;13.230;2022-12-18T10:04:50;-2.20;99.90
51035;DHT22;37062;52.546;13.230;2022-12-18T10:07:25;-2.30;99.90
51035;DHT22;37062;52.546;13.230;2022-12-18T10:10:01;-2.30;99.90
51035;DHT22;37062;52.546;13.230;2022-12-18T10:12:38;-2.30;99.90
51035;DHT22;37062;52.546;13.230;2022-12-18T10:15:15;-2.30;99.90
51035;DHT22;37062;52.546;13.230;2022-12-18T10:17:50;-2.30;99.90
51035;DHT22;37062;52.546;13.230;2022-12-18T10:20:27;-2.20;99.90
51035;DHT22;37062;52.546;13.230;2022-12-18T10:23:01;-2.10;99.90
51035;DHT22;37062;52.546;13.230;2022-12-18T10:25:36;-2.10;99.90
51035;DHT22;37062;52.546;13.230;2022-12-18T10:28:10;-1.90;99.90
51035;DHT22;37062;52.546;13.230;2022-12-18T10:30:41;-1.90;99.90
51035;DHT22;37062;52.546;13.230;2022-12-18T10:33:12;-2.00;99.90
51035;DHT22;37062;52.546;13.230;2022-12-18T10:35:45;-2.00;99.90
51035;DHT22;37062;52.546;13.230;2022-12-18T10:38:23;-2.10;99.90
51035;DHT22;37062;52.546;13.230;2022-12-18T10:40:54;-2.10;99.90
51035;DHT22;37062;52.546;13.230;2022-12-18T10:43:25;-2.20;99.90
51035;DHT22;37062;52.546;13.230;2022-12-18T10:46:03;-2.20;99.90
51035;DHT22;37062;52.546;13.230;2022-12-18T10:48:39;-2.00;99.90
51035;DHT22;37062;52.546;13.230;2022-12-18T10:51:08;-2.10;99.90
51035;DHT22;37062;52.546;13.230;2022-12-18T10:53:41;-2.00;99.90
51035;DHT22;37062;52.546;13.230;2022-12-18T10:56:10;-2.00;99.90
51035;DHT22;37062;52.546;13.230;2022-12-18T10:58:39;-2.00;99.90
51035;DHT22;37062;52.546;13.230;2022-12-18T11:01:10;-1.90;99.90
51035;DHT22;37062;52.546;13.230;2022-12-18T11:03:42;-2.00;99.90
51035;DHT22;37062;52.546;13.230;2022-12-18T11:06:12;-2.10;99.90
51035;DHT22;37062;52.546;13.230;2022-12-18T11:08:41;-2.20;99.90
51035;DHT22;37062;52.546;13.230;2022-12-18T11:11:19;-2.20;99.90
51035;DHT22;37062;52.546;13.230;2022-12-18T11:14:02;-2.10;99.90
51035;DHT22;37062;52.546;13.230;2022-12-18T11:16:34;-2.00;99.90
51035;DHT22;37062;52.546;13.230;2022-12-18T11:19:17;-1.80;99.90
51035;DHT22;37062;52.546;13.230;2022-12-18T11:21:48;-1.70;99.90
51035;DHT22;37062;52.546;13.230;2022-12-18T11:24:21;-1.60;99.90
51035;DHT22;37062;52.546;13.230;2022-12-18T11:26:50;-1.60;99.90
51035;DHT22;37062;52.546;13.230;2022-12-18T11:29:33;-1.70;99.90
51035;DHT22;37062;52.546;13.230;2022-12-18T11:32:29;-1.60;99.90
51035;DHT22;37062;52.546;13.230;2022-12-18T11:35:04;-1.50;99.90
51035;DHT22;37062;52.546;13.230;2022-12-18T11:37:37;-1.40;99.90
51035;DHT22;37062;52.546;13.230;2022-12-18T11:40:13;-1.20;99.90
51035;DHT22;37062;52.546;13.230;2022-12-18T11:42:48;-1.20;99.90
51035;DHT22;37062;52.546;13.230;2022-12-18T11:45:29;-1.00;99.90
51035;DHT22;37062;52.546;13.230;2022-12-18T11:48:02;-0.90;99.90
51035;DHT22;37062;52.546;13.230;2022-12-18T11:50:43;-0.80;99.90
51035;DHT22;37062;52.546;13.230;2022-12-18T11:53:12;-0.70;99.90
51035;DHT22;37062;52.546;13.230;2022-12-18T11:55:48;-0.60;99.90
51035;DHT22;37062;52.546;13.230;2022-12-18T11:58:28;-0.70;99.90
51035;DHT22;37062;52.546;13.230;2022-12-18T12:01:07;-0.70;99.90
51035;DHT22;37062;52.546;13.230;2022-12-18T12:03:52;-0.70;99.90
51035;DHT22;37062;52.546;13.230;2022-12-18T12:06:33;-0.70;99.90
51035;DHT22;37062;52.546;13.230;2022-12-18T12:09:11;-0.70;99.90
51035;DHT22;37062;52.546;13.230;2022-12-18T12:11:52;-0.50;99.90
51035;DHT22;37062;52.546;13.230;2022-12-18T12:14:34;-0.50;99.90
51035;DHT22;37062;52.546;13.230;2022-12-18T12:17:13;-0.50;99.90
51035;DHT22;37062;52.546;13.230;2022-12-18T12:19:48;-0.70;99.90
51035;DHT22;37062;52.546;13.230;2022-12-18T12:22:24;-0.70;99.90
51035;DHT22;37062;52.546;13.230;2022-12-18T12:25:10;-0.80;99.90
51035;DHT22;37062;52.546;13.230;2022-12-18T12:27:48;-0.90;99.90
51035;DHT22;37062;52.546;13.230;2022-12-18T12:30:24;-1.10;99.90
51035;DHT22;37062;52.546;13.230;2022-12-18T12:33:08;-1.10;99.90
51035;DHT22;37062;52.546;13.230;2022-12-18T12:35:48;-1.00;99.90
51035;DHT22;37062;52.546;13.230;2022-12-18T12:38:25;-1.00;99.90
51035;DHT22;37062;52.546;13.230;2022-12-18T12:40:58;-0.90;99.90
51035;DHT22;37062;52.546;13.230;2022-12-18T12:43:35;-0.90;99.90
51035;DHT22;37062;52.546;13.230;2022-12-18T12:46:09;-0.80;99.90
51035;DHT22;37062;52.546;13.230;2022-12-18T12:48:42;-0.70;99.90
51035;DHT22;37062;52.546;13.230;2022-12-18T12:51:16;-0.60;99.90
51035;DHT22;37062;52.546;13.230;2022-12-18T12:53:48;-0.50;99.90
51035;DHT22;37062;52.546;13.230;2022-12-18T12:56:18;-0.60;99.90
51035;DHT22;37062;52.546;13.230;2022-12-18T12:58:55;-0.60;99.90
51035;DHT22;37062;52.546;13.230;2022-12-18T13:01:31;-0.60;99.90
51035;DHT22;37062;52.546;13.230;2022-12-18T13:04:12;-0.80;99.90
51035;DHT22;37062;52.546;13.230;2022-12-18T13:06:47;-0.70;99.90
51035;DHT22;37062;52.546;13.230;2022-12-18T13:09:18;-0.70;99.90
51035;DHT22;37062;52.546;13.230;2022-12-18T13:11:47;-0.80;99.90
51035;DHT22;37062;52.546;13.230;2022-12-18T13:14:35;-0.70;99.90
51035;DHT22;37062;52.546;13.230;2022-12-18T13:17:37;-0.70;99.90
51035;DHT22;37062;52.546;13.230;2022-12-18T13:20:13;-0.50;99.90
51035;DHT22;37062;52.546;13.230;2022-12-18T13:22:44;-0.60;99.90
51035;DHT22;37062;52.546;13.230;2022-12-18T13:25:33;-0.80;99.90
51035;DHT22;37062;52.546;13.230;2022-12-18T13:28:09;-0.90;99.90
51035;DHT22;37062;52.546;13.230;2022-12-18T13:30:56;-1.00;99.90
51035;DHT22;37062;52.546;13.230;2022-12-18T13:33:49;-1.00;99.90
51035;DHT22;37062;52.546;13.230;2022-12-18T13:36:38;-1.00;99.90
51035;DHT22;37062;52.546;13.230;2022-12-18T13:39:24;-1.00;99.90
51035;DHT22;37062;52.546;13.230;2022-12-18T13:42:35;-1.10;99.90
51035;DHT22;37062;52.546;13.230;2022-12-18T13:45:41;-1.10;99.90
51035;DHT22;37062;52.546;13.230;2022-12-18T13:48:23;-1.20;99.90
51035;DHT22;37062;52.546;13.230;2022-12-18T13:51:03;-1.20;99.90
51035;DHT22;37062;52.546;13.230;2022-12-18T13:53:43;-1.20;99.90
51035;DHT22;37062;52.546;13.230;2022-12-18T13:56:24;-1.10;99.90
51035;DHT22;37062;52.546;13.230;2022-12-18T13:59:18;-1.10;99.90
51035;DHT22;37062;52.546;13.230;2022-12-18T14:01:53;-1.00;99.90
51035;DHT22;37062;52.546;13.230;2022-12-18T14:04:25;-1.20;99.90
51035;DHT22;37062;52.546;13.230;2022-12-18T14:06:57;-1.40;99.90
51035;DHT22;37062;52.546;13.230;2022-12-18T14:09:28;-1.40;99.90
51035;DHT22;37062;52.546;13.230;2022-12-18T14:11:58;-1.40;99.90
51035;DHT22;37062;52.546;13.230;2022-12-18T14:14:48;-1.50;99.90
51035;DHT22;37062;52.546;13.230;2022-12-18T14:17:20;-1.50;99.90
51035;DHT22;37062;52.546;13.230;2022-12-18T14:19:50;-1.30;99.90
51035;DHT22;37062;52.546;13.230;2022-12-18T14:22:20;-1.20;99.90
51035;DHT22;37062;52.546;13.230;2022-12-18T14:25:14;-1.10;99.90
51035;DHT22;37062;52.546;13.230;2022-12-18T14:27:45;-1.10;99.90
51035;DHT22;37062;52.546;13.230;2022-12-18T14:30:34;-1.10;99.90
51035;DHT22;37062;52.546;13.230;2022-12-18T14:33:05;-1.30;99.90
51035;DHT22;37062;52.546;13.230;2022-12-18T14:35:35;-1.30;99.90
51035;DHT22;37062;52.546;13.230;2022-12-18T14:38:22;-1.30;99.90
51035;DHT22;37062;52.546;13.230;2022-12-18T14:40:55;-1.30;99.90
51035;DHT22;37062;52.546;13.230;2022-12-18T14:43:28;-1.20;99.90
51035;DHT22;37062;52.546;13.230;2022-12-18T14:45:58;-1.20;99.90
51035;DHT22;37062;52.546;13.230;2022-12-18T14:48:37;-1.30;99.90
51035;DHT22;37062;52.546;13.230;2022-12-18T14:51:13;-1.30;99.90
51035;DHT22;37062;52.546;13.230;2022-12-18T14:53:44;-1.40;99.90
51035;DHT22;37062;52.546;13.230;2022-12-18T14:56:22;-1.70;99.90
51035;DHT22;37062;52.546;13.230;2022-12-18T14:58:52;-1.70;99.90
51035;DHT22;37062;52.546;13.230;2022-12-18T15:01:26;-1.60;99.90
51035;DHT22;37062;52.546;13.230;2022-12-18T15:03:56;-1.50;99.90
51035;DHT22;37062;52.546;13.230;2022-12-18T15:06:28;-1.40;99.90
51035;DHT22;37062;52.546;13.230;2022-12-18T15:08:58;-1.50;99.90
51035;DHT22;37062;52.546;13.230;2022-12-18T15:11:36;-1.50;99.90
51035;DHT22;37062;52.546;13.230;2022-12-18T15:14:23;-1.50;99.90
51035;DHT22;37062;52.546;13.230;2022-12-18T15:16:54;-1.30;99.90
51035;DHT22;37062;52.546;13.230;2022-12-18T15:19:35;-1.30;99.90
51035;DHT22;37062;52.546;13.230;2022-12-18T15:22:17;-1.30;99.90
51035;DHT22;37062;52.546;13.230;2022-12-18T15:24:48;-1.50;99.90
51035;DHT22;37062;52.546;13.230;2022-12-18T15:27:31;-1.60;99.90
51035;DHT22;37062;52.546;13.230;2022-12-18T15:30:20;-1.50;99.90
51035;DHT22;37062;52.546;13.230;2022-12-18T15:32:50;-1.60;99.90
51035;DHT22;37062;52.546;13.230;2022-12-18T15:35:21;-1.80;99.90
51035;DHT22;37062;52.546;13.230;2022-12-18T15:37:51;-1.90;99.90
51035;DHT22;37062;52.546;13.230;2022-12-18T15:40:21;-1.80;99.90
51035;DHT22;37062;52.546;13.230;2022-12-18T15:42:53;-1.90;99.90
51035;DHT22;37062;52.546;13.230;2022-12-18T15:45:39;-2.00;99.90
51035;DHT22;37062;52.546;13.230;2022-12-18T15:48:18;-2.00;99.90
51035;DHT22;37062;52.546;13.230;2022-12-18T15:50:46;-2.00;99.90